Terminal Aerodrome Forecast
Issued by NWS Billings, MT

Home | Current Version | Previous Version | Text Only | Print | Product List | Glossary On
Versions: 1 2 3 4 5 6 7 8 9 10 11 12 13 14
000
FTUS45 KBYZ 102354 CCA
TAFSHR
TAF COR
KSHR 102354Z 1100/1124 30014G20KT 3SM -SN BKN025
      TEMPO 1100/1104 1/2SM -SN BLSN BKN010
     FM110400 31015G25KT 6SM -SN BLSN SCT010 BKN050
     FM111300 29012KT P6SM BKN070
     FM111700 VRB04KT P6SM SCT150=

USA.gov is the U.S. government's official web portal to all federal, state and local government web resources and services.